createdAt,value
2018-09-30T00:00:30.695Z,7.74
2018-09-30T00:02:59.314Z,7.73
2018-09-30T00:05:27.380Z,7.71
2018-09-30T00:07:55.381Z,7.69
2018-09-30T00:10:23.434Z,7.74
2018-09-30T00:12:52.541Z,7.73
2018-09-30T00:15:20.566Z,7.65
2018-09-30T00:17:48.649Z,7.68
2018-09-30T00:20:16.658Z,7.62
2018-09-30T00:22:44.670Z,7.61
2018-09-30T00:25:18.214Z,7.63
2018-09-30T00:27:53.185Z,7.58
2018-09-30T00:30:21.325Z,7.48
2018-09-30T00:32:49.369Z,7.44
2018-09-30T00:35:17.382Z,7.41
2018-09-30T00:37:45.407Z,7.36
2018-09-30T00:40:13.489Z,7.39
2018-09-30T00:42:41.514Z,7.38
2018-09-30T00:45:09.662Z,7.43
2018-09-30T00:47:37.666Z,7.42
2018-09-30T00:50:05.966Z,7.35
2018-09-30T00:52:34.024Z,7.39
2018-09-30T00:55:02.044Z,7.35
2018-09-30T00:57:30.077Z,7.45
2018-09-30T00:59:58.145Z,7.45
2018-09-30T01:02:26.159Z,7.46
2018-09-30T01:04:54.185Z,7.47
2018-09-30T01:07:22.238Z,7.58
2018-09-30T01:09:56.742Z,7.52
2018-09-30T01:12:24.768Z,7.53
2018-09-30T01:14:52.818Z,7.59
2018-09-30T01:17:20.823Z,7.53
2018-09-30T01:19:48.866Z,7.56
2018-09-30T01:22:17.881Z,7.63
2018-09-30T01:24:45.913Z,7.59
2018-09-30T01:27:13.958Z,7.64
2018-09-30T01:29:42.041Z,7.52
2018-09-30T01:32:10.061Z,7.52
2018-09-30T01:34:38.068Z,7.51
2018-09-30T01:37:06.081Z,7.41
2018-09-30T01:39:34.114Z,7.40
2018-09-30T01:42:02.181Z,7.41
2018-09-30T01:44:30.193Z,7.38
2018-09-30T01:46:58.217Z,7.44
2018-09-30T01:49:26.302Z,7.51
2018-09-30T01:52:05.918Z,7.53
2018-09-30T01:54:33.968Z,7.48
2018-09-30T01:57:02.124Z,7.44
2018-09-30T01:59:30.292Z,7.49
2018-09-30T02:01:58.542Z,7.57
2018-09-30T02:04:26.559Z,7.61
2018-09-30T02:06:54.610Z,7.54
2018-09-30T02:09:22.635Z,7.49
2018-09-30T02:11:50.683Z,7.51
2018-09-30T02:14:18.711Z,7.53
2018-09-30T02:16:46.733Z,7.46
2018-09-30T02:19:14.742Z,7.47
2018-09-30T02:21:42.844Z,7.52
2018-09-30T02:24:10.866Z,7.50
2018-09-30T02:26:38.929Z,7.42
2018-09-30T02:29:07.106Z,7.40
2018-09-30T02:31:35.151Z,7.31
2018-09-30T02:34:03.210Z,7.33
2018-09-30T02:36:31.283Z,7.31
2018-09-30T02:38:59.296Z,7.25
2018-09-30T02:41:27.335Z,7.28
2018-09-30T02:43:55.382Z,7.26
2018-09-30T02:46:23.430Z,7.27
2018-09-30T02:48:51.460Z,7.29
2018-09-30T02:51:19.483Z,7.18
2018-09-30T02:53:47.497Z,7.06
2018-09-30T02:56:15.538Z,7.06
2018-09-30T02:58:43.563Z,7.03
2018-09-30T03:01:11.571Z,7.02
2018-09-30T03:03:39.621Z,6.97
2018-09-30T03:06:12.290Z,6.99
2018-09-30T03:08:45.753Z,6.99
2018-09-30T03:11:13.765Z,6.90
2018-09-30T03:13:41.878Z,6.87
2018-09-30T03:16:09.906Z,6.79
2018-09-30T03:18:37.966Z,6.63
2018-09-30T03:21:05.969Z,6.64
2018-09-30T03:23:33.991Z,6.62
2018-09-30T03:26:02.042Z,6.53
2018-09-30T03:28:30.081Z,6.49
2018-09-30T03:30:58.158Z,6.49
2018-09-30T03:33:26.204Z,6.36
2018-09-30T03:35:54.262Z,6.28
2018-09-30T03:38:22.328Z,6.29
2018-09-30T03:40:50.411Z,6.29
2018-09-30T03:43:18.484Z,6.32
2018-09-30T03:45:46.553Z,6.23
2018-09-30T03:48:14.597Z,6.14
2018-09-30T03:50:42.642Z,6.11
2018-09-30T03:53:10.752Z,6.01
2018-09-30T03:55:38.907Z,6.04
2018-09-30T03:58:06.922Z,5.91
2018-09-30T04:00:34.958Z,5.90
2018-09-30T04:03:02.976Z,5.94
2018-09-30T04:05:31.016Z,5.94
2018-09-30T04:08:00.132Z,5.90
2018-09-30T04:10:28.149Z,5.80
2018-09-30T04:12:56.351Z,5.79
2018-09-30T04:15:24.436Z,5.88
2018-09-30T04:17:52.492Z,5.95
2018-09-30T04:20:20.554Z,5.97
2018-09-30T04:22:48.623Z,5.98
2018-09-30T04:25:16.694Z,6.01
2018-09-30T04:27:44.739Z,6.00
2018-09-30T04:30:12.834Z,6.00
2018-09-30T04:32:40.939Z,5.91
2018-09-30T04:35:08.981Z,5.94
2018-09-30T04:37:37.005Z,5.81
2018-09-30T04:40:05.051Z,5.83
2018-09-30T04:42:33.098Z,5.86
2018-09-30T04:45:01.141Z,5.93
2018-09-30T04:47:29.758Z,5.88
2018-09-30T04:49:57.847Z,5.86
2018-09-30T04:52:25.833Z,5.77
2018-09-30T04:54:53.845Z,5.79
2018-09-30T04:57:21.853Z,5.80
2018-09-30T04:59:49.923Z,5.72
2018-09-30T05:02:17.971Z,5.69
2018-09-30T05:04:45.994Z,5.68
2018-09-30T05:07:14.077Z,5.63
2018-09-30T05:09:42.102Z,5.63
2018-09-30T05:12:10.137Z,5.58
2018-09-30T05:14:38.276Z,5.64
2018-09-30T05:17:06.324Z,5.63
2018-09-30T05:19:34.373Z,5.60
2018-09-30T05:22:02.415Z,5.64
2018-09-30T05:24:30.443Z,5.66
2018-09-30T05:26:58.458Z,5.63
2018-09-30T05:29:26.462Z,5.58
2018-09-30T05:31:54.546Z,5.58
2018-09-30T05:34:22.605Z,5.61
2018-09-30T05:36:50.646Z,5.62
2018-09-30T05:39:18.686Z,5.46
2018-09-30T05:41:46.743Z,5.40
2018-09-30T05:44:14.766Z,5.52
2018-09-30T05:46:42.822Z,5.61
2018-09-30T05:49:10.969Z,5.57
2018-09-30T05:51:38.970Z,5.64
2018-09-30T05:54:06.995Z,5.64
2018-09-30T05:56:35.207Z,5.72
2018-09-30T05:59:03.314Z,6.40
2018-09-30T06:01:31.370Z,7.68
2018-09-30T06:03:59.484Z,9.28
2018-09-30T06:06:27.469Z,10.91
2018-09-30T06:08:55.593Z,12.48
2018-09-30T06:11:23.611Z,13.83
2018-09-30T06:13:51.659Z,15.00
2018-09-30T06:16:19.713Z,16.07
2018-09-30T06:18:47.750Z,16.74
2018-09-30T06:21:15.831Z,17.01
2018-09-30T06:23:43.866Z,17.48
2018-09-30T06:26:11.912Z,17.93
2018-09-30T06:28:39.942Z,18.12
2018-09-30T06:31:08.033Z,18.92
2018-09-30T06:33:36.087Z,19.78
2018-09-30T06:36:04.121Z,20.68
2018-09-30T06:38:32.171Z,21.58
2018-09-30T06:41:00.218Z,22.65
2018-09-30T06:43:28.257Z,23.42
2018-09-30T06:45:56.330Z,24.40
2018-09-30T06:48:24.373Z,25.19
2018-09-30T06:50:52.479Z,26.05
2018-09-30T06:53:20.525Z,26.66
2018-09-30T06:55:48.655Z,27.00
2018-09-30T06:58:16.815Z,27.03
2018-09-30T07:00:44.817Z,26.85
2018-09-30T07:03:12.902Z,26.65
2018-09-30T07:05:40.985Z,26.71
2018-09-30T07:08:09.040Z,26.84
2018-09-30T07:10:37.078Z,27.05
2018-09-30T07:13:05.200Z,27.31
2018-09-30T07:15:33.216Z,27.83
2018-09-30T07:18:01.386Z,28.54
2018-09-30T07:20:29.402Z,29.43
2018-09-30T07:22:57.496Z,30.06
2018-09-30T07:25:25.563Z,30.67
2018-09-30T07:27:53.628Z,31.31
2018-09-30T07:30:21.751Z,31.46
2018-09-30T07:32:49.811Z,31.53
2018-09-30T07:35:18.358Z,31.33
2018-09-30T07:37:46.431Z,31.82
2018-09-30T07:40:14.446Z,32.02
2018-09-30T07:42:42.520Z,31.85
2018-09-30T07:45:10.525Z,32.25
2018-09-30T07:47:38.646Z,31.97
2018-09-30T07:50:06.774Z,31.74
2018-09-30T07:52:35.011Z,32.01
2018-09-30T07:55:03.113Z,32.09
2018-09-30T07:57:33.468Z,32.48
2018-09-30T08:00:01.735Z,32.25
2018-09-30T08:02:29.902Z,32.54
2018-09-30T08:04:59.189Z,32.16
2018-09-30T08:07:27.399Z,32.17
2018-09-30T08:09:55.721Z,31.91
2018-09-30T08:12:23.998Z,32.16
2018-09-30T08:14:52.123Z,32.17
2018-09-30T08:17:20.353Z,32.57
2018-09-30T08:19:48.593Z,32.46
2018-09-30T08:22:17.849Z,32.66
2018-09-30T08:24:45.879Z,32.81
2018-09-30T08:27:14.044Z,32.38
2018-09-30T08:29:42.371Z,32.92
2018-09-30T08:32:10.481Z,33.27
2018-09-30T08:34:38.940Z,33.48
2018-09-30T08:37:07.250Z,33.35
2018-09-30T08:39:35.474Z,32.22
2018-09-30T08:42:03.817Z,32.39
2018-09-30T08:44:31.956Z,32.05
2018-09-30T08:47:01.062Z,32.02
2018-09-30T08:49:29.142Z,32.63
2018-09-30T08:51:57.258Z,31.94
2018-09-30T08:54:25.634Z,31.84
2018-09-30T08:56:53.710Z,32.21
2018-09-30T08:59:21.809Z,32.20
2018-09-30T09:01:49.814Z,31.71
2018-09-30T09:04:17.981Z,31.24
2018-09-30T09:06:46.046Z,31.22
2018-09-30T09:09:14.141Z,31.62
2018-09-30T09:11:42.158Z,31.42
2018-09-30T09:14:10.289Z,31.09
2018-09-30T09:16:38.348Z,31.32
2018-09-30T09:19:06.442Z,31.40
2018-09-30T09:21:34.491Z,31.43
2018-09-30T09:24:02.548Z,31.56
2018-09-30T09:29:08.333Z,31.70
2018-09-30T09:31:36.521Z,31.43
2018-09-30T09:34:04.562Z,31.22
2018-09-30T09:36:34.509Z,30.65
2018-09-30T09:39:06.604Z,30.14
2018-09-30T09:41:34.750Z,29.47
2018-09-30T09:44:02.912Z,28.92
2018-09-30T09:46:30.942Z,28.77
2018-09-30T09:48:59.038Z,28.49
2018-09-30T09:51:27.099Z,27.85
2018-09-30T09:53:55.202Z,27.49
2018-09-30T09:56:23.274Z,26.81
2018-09-30T09:58:51.384Z,26.48
2018-09-30T10:01:19.381Z,25.97
2018-09-30T10:03:47.414Z,25.26
2018-09-30T10:06:15.477Z,25.24
2018-09-30T10:08:43.543Z,24.82
2018-09-30T10:11:11.597Z,24.48
2018-09-30T10:13:39.738Z,24.03
2018-09-30T10:16:07.819Z,23.79
2018-09-30T10:18:35.902Z,23.58
2018-09-30T10:21:03.979Z,22.83
2018-09-30T10:23:32.002Z,22.61
2018-09-30T10:26:00.102Z,22.16
2018-09-30T10:28:28.182Z,22.07
2018-09-30T10:30:58.013Z,22.02
2018-09-30T10:33:26.326Z,21.86
2018-09-30T10:35:55.451Z,21.43
2018-09-30T10:38:23.643Z,21.41
2018-09-30T10:40:52.858Z,21.28
2018-09-30T10:43:20.901Z,20.89
2018-09-30T10:45:49.103Z,20.94
2018-09-30T10:48:17.166Z,20.84
2018-09-30T10:50:45.197Z,20.83
2018-09-30T10:53:13.295Z,20.92
2018-09-30T10:55:41.414Z,20.82
2018-09-30T10:58:09.602Z,20.62
2018-09-30T11:00:37.698Z,20.82
2018-09-30T11:05:40.197Z,20.57
2018-09-30T11:08:08.282Z,20.37
2018-09-30T11:10:36.322Z,20.34
2018-09-30T11:13:04.446Z,20.43
2018-09-30T11:15:32.529Z,20.49
2018-09-30T11:18:00.588Z,20.88
2018-09-30T11:20:28.694Z,20.65
2018-09-30T11:22:56.765Z,20.48
2018-09-30T11:25:24.877Z,20.21
2018-09-30T11:27:52.990Z,20.27
2018-09-30T11:30:21.273Z,20.40
2018-09-30T11:32:49.575Z,20.35
2018-09-30T11:35:17.721Z,20.36
2018-09-30T11:37:45.989Z,20.15
2018-09-30T11:40:14.073Z,20.28
2018-09-30T11:42:42.546Z,20.43
2018-09-30T11:45:10.662Z,20.55
2018-09-30T11:47:38.906Z,20.90
2018-09-30T11:50:06.933Z,20.81
2018-09-30T11:52:35.045Z,20.71
2018-09-30T11:55:03.251Z,21.09
2018-09-30T11:57:31.590Z,21.12
2018-09-30T11:59:59.857Z,21.25
2018-09-30T12:02:27.914Z,21.64
2018-09-30T12:04:56.000Z,21.84
2018-09-30T12:07:24.150Z,21.54
2018-09-30T12:09:52.189Z,21.48
2018-09-30T12:12:21.481Z,21.47
2018-09-30T12:14:49.577Z,21.49
2018-09-30T12:17:17.855Z,21.62
2018-09-30T12:19:46.046Z,21.91
2018-09-30T12:22:14.118Z,22.19
2018-09-30T12:24:42.295Z,22.25
2018-09-30T12:27:10.390Z,21.96
2018-09-30T12:29:38.518Z,22.14
2018-09-30T12:32:06.998Z,22.21
2018-09-30T12:34:35.216Z,22.28
2018-09-30T12:37:03.333Z,22.32
2018-09-30T12:39:31.474Z,22.16
2018-09-30T12:41:59.723Z,22.17
2018-09-30T12:44:27.993Z,22.15
2018-09-30T12:46:56.227Z,22.14
2018-09-30T12:49:24.293Z,22.15
2018-09-30T12:51:52.649Z,22.15
2018-09-30T12:54:20.730Z,21.82
2018-09-30T12:56:48.784Z,21.80
2018-09-30T12:59:16.818Z,21.70
2018-09-30T13:01:44.941Z,21.33
2018-09-30T13:04:13.058Z,21.06
2018-09-30T13:06:41.174Z,21.42
2018-09-30T13:09:10.091Z,21.38
2018-09-30T13:11:38.397Z,21.23
2018-09-30T13:14:06.919Z,21.16
2018-09-30T13:16:35.113Z,21.22
2018-09-30T13:19:03.177Z,21.24
2018-09-30T13:21:31.302Z,21.42
2018-09-30T13:23:59.446Z,21.39
2018-09-30T13:26:27.498Z,21.50
2018-09-30T13:28:55.599Z,21.32
2018-09-30T13:31:24.089Z,21.26
2018-09-30T13:33:52.165Z,21.21
2018-09-30T13:36:20.326Z,21.09
2018-09-30T13:38:48.445Z,21.09
2018-09-30T13:41:16.470Z,21.08
2018-09-30T13:43:44.566Z,21.11
2018-09-30T13:46:12.682Z,20.73
2018-09-30T13:48:40.786Z,20.79
2018-09-30T13:51:08.894Z,20.39
2018-09-30T13:53:37.106Z,20.16
2018-09-30T13:56:05.134Z,20.31
2018-09-30T13:58:33.166Z,20.02
2018-09-30T14:01:01.364Z,19.92
2018-09-30T14:03:29.509Z,20.08
2018-09-30T14:05:57.619Z,20.21
2018-09-30T14:08:25.675Z,20.22
2018-09-30T14:10:53.714Z,20.30
2018-09-30T14:13:21.784Z,20.23
2018-09-30T14:15:49.981Z,20.08
2018-09-30T14:18:18.102Z,20.18
2018-09-30T14:20:46.196Z,20.05
2018-09-30T14:23:14.238Z,19.88
2018-09-30T14:25:43.363Z,19.64
2018-09-30T14:28:11.457Z,19.74
2018-09-30T14:30:39.613Z,19.71
2018-09-30T14:33:07.878Z,19.50
2018-09-30T14:35:35.942Z,19.49
2018-09-30T14:38:04.012Z,19.49
2018-09-30T14:40:32.057Z,19.56
2018-09-30T14:43:00.140Z,19.52
2018-09-30T14:45:28.169Z,19.53
2018-09-30T14:47:56.298Z,19.37
2018-09-30T14:50:24.454Z,19.29
2018-09-30T14:52:52.851Z,19.05
2018-09-30T14:55:20.926Z,19.10
2018-09-30T14:57:48.959Z,19.14
2018-09-30T15:00:16.981Z,19.04
2018-09-30T15:02:45.062Z,18.98
2018-09-30T15:05:13.083Z,19.06
2018-09-30T15:07:41.139Z,18.86
2018-09-30T15:10:09.155Z,18.88
2018-09-30T15:12:37.775Z,18.99
2018-09-30T15:15:07.467Z,19.16
2018-09-30T15:17:35.590Z,19.24
2018-09-30T15:20:03.610Z,19.28
2018-09-30T15:22:31.646Z,19.35
2018-09-30T15:25:00.147Z,19.22
2018-09-30T15:27:28.204Z,19.19
2018-09-30T15:29:56.205Z,19.06
2018-09-30T15:32:24.238Z,19.07
2018-09-30T15:34:52.255Z,19.11
2018-09-30T15:37:20.409Z,19.09
2018-09-30T15:39:48.449Z,19.05
2018-09-30T15:42:16.539Z,19.07
2018-09-30T15:44:44.548Z,19.05
2018-09-30T15:47:12.573Z,19.07
2018-09-30T15:49:40.680Z,19.08
2018-09-30T15:52:08.705Z,19.07
2018-09-30T15:54:36.784Z,19.02
2018-09-30T15:57:05.910Z,18.98
2018-09-30T15:59:33.986Z,18.93
2018-09-30T16:02:02.007Z,18.91
2018-09-30T16:04:30.064Z,18.84
2018-09-30T16:06:58.195Z,18.79
2018-09-30T16:09:26.271Z,18.70
2018-09-30T16:11:54.331Z,18.69
2018-09-30T16:14:22.540Z,18.58
2018-09-30T16:16:50.614Z,18.56
2018-09-30T16:19:18.735Z,18.48
2018-09-30T16:21:46.832Z,18.44
2018-09-30T16:24:14.861Z,18.42
2018-09-30T16:26:42.942Z,18.35
2018-09-30T16:29:10.992Z,18.28
2018-09-30T16:31:39.054Z,18.22
2018-09-30T16:34:07.103Z,18.12
2018-09-30T16:36:35.184Z,18.08
2018-09-30T16:39:03.462Z,18.02
2018-09-30T16:41:31.534Z,17.94
2018-09-30T16:43:59.552Z,17.89
2018-09-30T16:46:27.617Z,17.82
2018-09-30T16:48:55.691Z,17.73
2018-09-30T16:51:23.765Z,17.64
2018-09-30T16:53:51.809Z,17.53
2018-09-30T16:56:19.858Z,17.45
2018-09-30T16:58:47.923Z,17.33
2018-09-30T17:01:16.042Z,17.27
2018-09-30T17:03:44.194Z,17.13
2018-09-30T17:06:12.269Z,17.07
2018-09-30T17:08:40.312Z,17.01
2018-09-30T17:11:08.384Z,16.93
2018-09-30T17:13:36.545Z,16.86
2018-09-30T17:16:05.696Z,16.82
2018-09-30T17:18:33.802Z,16.79
2018-09-30T17:21:01.872Z,16.69
2018-09-30T17:23:30.309Z,16.60
2018-09-30T17:25:58.311Z,16.49
2018-09-30T17:28:26.713Z,16.41
2018-09-30T17:30:54.897Z,16.36
2018-09-30T17:33:23.029Z,16.24
2018-09-30T17:35:51.092Z,16.18
2018-09-30T17:38:19.163Z,16.06
2018-09-30T17:40:47.247Z,15.96
2018-09-30T17:43:15.330Z,15.97
2018-09-30T17:45:43.392Z,15.93
2018-09-30T17:48:11.778Z,15.87
2018-09-30T17:50:39.931Z,15.86
2018-09-30T17:53:08.074Z,15.81
2018-09-30T17:55:36.122Z,15.73
2018-09-30T17:58:04.258Z,15.61
2018-09-30T18:00:32.310Z,15.53
2018-09-30T18:05:40.094Z,15.45
2018-09-30T18:08:08.177Z,15.42
2018-09-30T18:10:36.359Z,15.32
2018-09-30T18:13:04.519Z,15.36
2018-09-30T18:15:32.700Z,15.30
2018-09-30T18:18:00.739Z,15.31
2018-09-30T18:20:28.781Z,15.18
2018-09-30T18:22:57.298Z,15.07
2018-09-30T18:25:25.808Z,15.01
2018-09-30T18:27:53.917Z,15.01
2018-09-30T18:30:22.526Z,15.05
2018-09-30T18:32:50.553Z,15.02
2018-09-30T18:35:18.634Z,14.95
2018-09-30T18:37:46.750Z,14.94
2018-09-30T18:40:14.939Z,14.87
2018-09-30T18:42:44.034Z,14.82
2018-09-30T18:45:12.175Z,14.81
2018-09-30T18:47:40.272Z,14.77
2018-09-30T18:50:08.358Z,14.72
2018-09-30T18:52:36.436Z,14.66
2018-09-30T18:55:04.614Z,14.60
2018-09-30T18:57:32.821Z,14.64
2018-09-30T19:00:01.030Z,14.59
2018-09-30T19:02:29.102Z,14.58
2018-09-30T19:04:57.178Z,14.55
2018-09-30T19:07:25.296Z,14.44
2018-09-30T19:09:54.416Z,14.52
2018-09-30T19:12:22.598Z,14.46
2018-09-30T19:14:50.622Z,14.43
2018-09-30T19:17:18.707Z,14.46
2018-09-30T19:19:46.854Z,14.39
2018-09-30T19:22:14.983Z,14.36
2018-09-30T19:24:43.026Z,14.37
2018-09-30T19:27:11.065Z,14.31
2018-09-30T19:29:39.165Z,14.30
2018-09-30T19:32:07.238Z,14.24
2018-09-30T19:34:35.377Z,14.28
2018-09-30T19:37:03.414Z,14.29
2018-09-30T19:39:31.471Z,14.26
2018-09-30T19:41:59.490Z,14.18
2018-09-30T19:44:27.588Z,13.97
2018-09-30T19:46:55.685Z,14.05
2018-09-30T19:49:23.805Z,13.97
2018-09-30T19:51:51.937Z,13.96
2018-09-30T19:54:19.988Z,13.92
2018-09-30T19:56:48.266Z,13.95
2018-09-30T19:59:16.925Z,14.03
2018-09-30T20:01:45.019Z,13.97
2018-09-30T20:04:13.303Z,13.94
2018-09-30T20:06:41.412Z,13.94
2018-09-30T20:09:09.721Z,13.85
2018-09-30T20:11:38.175Z,13.79
2018-09-30T20:14:06.422Z,13.82
2018-09-30T20:16:34.496Z,13.77
2018-09-30T20:19:02.561Z,13.80
2018-09-30T20:21:30.666Z,13.73
2018-09-30T20:23:58.709Z,13.78
2018-09-30T20:26:27.049Z,13.79
2018-09-30T20:28:55.334Z,13.83
2018-09-30T20:31:24.101Z,13.75
2018-09-30T20:33:52.333Z,13.61
2018-09-30T20:36:20.763Z,13.57
2018-09-30T20:38:49.037Z,13.36
2018-09-30T20:41:17.294Z,13.55
2018-09-30T20:43:46.481Z,13.39
2018-09-30T20:46:15.977Z,13.14
2018-09-30T20:48:44.201Z,13.07
2018-09-30T20:51:13.197Z,13.13
2018-09-30T20:53:41.441Z,13.23
2018-09-30T20:56:09.787Z,13.31
2018-09-30T20:58:37.897Z,13.29
2018-09-30T21:01:06.062Z,13.30
2018-09-30T21:03:34.322Z,13.30
2018-09-30T21:06:08.782Z,13.17
2018-09-30T21:08:36.889Z,13.07
2018-09-30T21:11:04.969Z,12.78
2018-09-30T21:13:33.134Z,12.87
2018-09-30T21:16:01.731Z,12.94
2018-09-30T21:18:29.977Z,12.87
2018-09-30T21:20:58.465Z,12.87
2018-09-30T21:23:26.839Z,12.77
2018-09-30T21:25:55.186Z,12.71
2018-09-30T21:28:23.451Z,12.37
2018-09-30T21:30:52.125Z,12.42
2018-09-30T21:33:20.363Z,12.28
2018-09-30T21:35:48.822Z,12.35
2018-09-30T21:38:17.338Z,12.30
2018-09-30T21:40:45.806Z,12.45
2018-09-30T21:43:14.060Z,12.33
2018-09-30T21:45:42.475Z,12.22
2018-09-30T21:48:11.045Z,12.20
2018-09-30T21:50:39.326Z,12.28
2018-09-30T21:53:15.189Z,12.36
2018-09-30T21:55:43.372Z,12.45
2018-09-30T21:58:11.858Z,12.44
2018-09-30T22:00:42.174Z,12.41
2018-09-30T22:03:12.362Z,12.42
2018-09-30T22:05:40.649Z,12.42
2018-09-30T22:08:09.734Z,12.33
2018-09-30T22:10:38.677Z,12.33
2018-09-30T22:13:07.013Z,12.22
2018-09-30T22:15:35.331Z,12.17
2018-09-30T22:18:03.451Z,12.15
2018-09-30T22:20:32.484Z,11.90
2018-09-30T22:23:00.573Z,11.95
2018-09-30T22:25:28.663Z,11.99
2018-09-30T22:27:56.761Z,12.08
2018-09-30T22:30:24.781Z,12.06
2018-09-30T22:32:52.810Z,12.15
2018-09-30T22:35:20.915Z,12.14
2018-09-30T22:37:49.022Z,12.09
2018-09-30T22:40:17.095Z,12.20
2018-09-30T22:42:45.229Z,11.94
2018-09-30T22:45:13.326Z,12.08
2018-09-30T22:47:41.334Z,12.17
2018-09-30T22:50:09.398Z,12.27
2018-09-30T22:52:37.539Z,12.31
2018-09-30T22:55:05.862Z,12.31
2018-09-30T22:57:34.073Z,12.35
2018-09-30T23:00:02.138Z,12.32
2018-09-30T23:02:30.197Z,12.33
2018-09-30T23:04:58.275Z,12.24
2018-09-30T23:07:26.302Z,12.29
2018-09-30T23:09:54.441Z,12.32
2018-09-30T23:12:22.551Z,12.44
2018-09-30T23:14:50.594Z,12.45
2018-09-30T23:17:18.748Z,12.49
2018-09-30T23:19:46.835Z,12.43
2018-09-30T23:22:14.852Z,12.45
2018-09-30T23:24:42.952Z,12.46
2018-09-30T23:27:10.993Z,12.49
2018-09-30T23:29:39.021Z,12.52
2018-09-30T23:32:07.094Z,12.52
2018-09-30T23:34:35.126Z,12.44
2018-09-30T23:37:03.155Z,12.48
2018-09-30T23:39:31.189Z,12.51
2018-09-30T23:41:59.263Z,12.47
2018-09-30T23:44:27.291Z,12.48
2018-09-30T23:46:55.358Z,12.52
2018-09-30T23:49:23.401Z,12.48
2018-09-30T23:51:51.470Z,12.51
2018-09-30T23:54:19.501Z,12.51
2018-09-30T23:56:47.521Z,12.30
2018-09-30T23:59:15.550Z,12.37
